Latest Weather Observations for Cerberus

IDV60901

Issued at 5:31 pm EST Thursday 9 April 2020 (issued every 10 minutes, with the page automatically refreshed every 10 minutes)

About weather observations | Map of Melbourne area stations | Latest observations for Melbourne area | Other Formats
Station Details ID: 086361 Name: CERBERUS Lat: -38.36 Lon: 145.18 Height: 12.69 m
Data from the previous 72 hours. | See also: Recent months at Cerberus
Date/Time
EST
Temp
°C
App
Temp
°C
Dew
Point
°C
Rel
Hum
%
Delta-T
°C
Wind Press
QNH
hPa
Press
MSL
hPa
Rain since
9am
mm
Dir  Spd
km/h
Gust
km/h
Spd
kts
Gust
kts
09/05:30pm 18.7 18.8 12.7 68 3.3 SSW 4 6 2 3 1022.9 1022.9 0.0
09/05:00pm 19.3 19.0 12.6 65 3.7 SSW 6 11 3 6 1022.9 1022.9 0.0
09/04:30pm 20.7 20.1 11.6 56 5.0 ENE 6 7 3 4 1023.0 1023.0 0.0
09/04:00pm 21.0 20.7 11.6 55 5.2 ENE 4 9 2 5 1023.2 1023.2 0.0
09/03:30pm 21.1 20.9 11.7 55 5.2 N 4 6 2 3 1023.4 1023.4 0.0
09/03:00pm 20.9 20.1 11.8 56 5.1 NE 7 13 4 7 1023.5 1023.5 0.0
09/02:30pm 20.8 20.2 12.2 58 4.8 NE 7 11 4 6 1023.7 1023.7 0.0
09/02:00pm 20.5 19.5 12.2 59 4.6 NNE 9 17 5 9 1023.8 1023.8 0.0
09/01:30pm 19.9 18.3 11.7 59 4.5 NE 11 19 6 10 1024.2 1024.2 0.0
09/01:00pm 19.6 18.1 11.9 61 4.2 NE 11 19 6 10 1024.9 1024.9 0.0
09/12:30pm 19.8 18.1 12.6 63 4.0 NE 13 20 7 11 1025.5 1025.5 0.0
09/12:00pm 20.0 18.9 13.2 65 3.8 NE 11 19 6 10 1026.0 1026.0 0.0
09/11:30am 19.2 17.8 12.2 64 3.9 ENE 11 22 6 12 1026.3 1026.3 0.0
09/11:00am 18.8 17.0 12.1 65 3.7 ENE 13 20 7 11 1026.7 1026.7 0.0
09/10:30am 18.6 17.5 13.0 70 3.2 ENE 11 17 6 9 1027.0 1027.0 0.0
09/10:00am 17.5 16.6 12.6 73 2.7 E 9 17 5 9 1027.2 1027.2 0.0
09/09:30am 16.8 15.9 12.7 77 2.3 ENE 9 15 5 8 1027.6 1027.6 0.0
09/09:00am 16.4 16.2 12.9 80 1.9 ESE 6 9 3 5 1027.9 1027.9 0.0
09/08:30am 15.8 15.7 13.3 85 1.4 ESE 6 9 3 5 1027.6 1027.6 0.0
09/08:00am 14.0 14.6 12.0 88 1.1 CALM 0 2 0 1 1027.5 1027.5 0.0
09/07:30am 11.7 11.6 9.6 87 1.1 CALM 0 0 0 0 1027.4 1027.4 0.0
09/07:00am 11.3 11.1 9.0 86 1.1 CALM 0 0 0 0 1027.2 1027.2 0.0
09/06:30am 12.5 12.2 10.2 86 1.2 E 2 4 1 2 1027.1 1027.1 0.0
09/06:00am 13.4 12.4 10.9 85 1.3 E 7 13 4 7 1026.9 1026.9 0.0
09/05:30am 13.8 12.1 11.3 85 1.3 E 11 15 6 8 1026.9 1026.9 0.0
09/05:00am 14.2 13.0 11.7 85 1.3 E 9 17 5 9 1026.9 1026.9 0.0
09/04:30am 14.1 13.3 11.6 85 1.3 ESE 7 15 4 8 1026.8 1026.8 0.0
09/04:00am 14.1 12.5 11.6 85 1.3 ESE 11 17 6 9 1026.8 1026.8 0.0
09/03:30am 14.0 12.3 11.3 84 1.4 ESE 11 19 6 10 1026.8 1026.8 0.0
09/03:00am 13.7 12.7 11.0 84 1.4 ESE 7 11 4 6 1027.0 1027.0 0.0
09/02:30am 13.8 12.4 11.0 83 1.5 E 9 19 5 10 1027.1 1027.1 0.0
09/02:00am 14.1 12.4 11.3 83 1.5 ESE 11 20 6 11 1027.3 1027.3 0.0
09/01:30am 14.2 11.8 11.4 83 1.5 ESE 15 24 8 13 1027.3 1027.3 0.0
09/01:00am 14.2 12.2 11.4 83 1.5 ESE 13 26 7 14 1027.3 1027.3 0.0
09/12:30am 14.1 12.0 11.3 83 1.5 ESE 13 24 7 13 1026.9 1026.9 0.0
09/12:00am 14.2 12.5 11.2 82 1.6 ESE 11 19 6 10 1027.0 1027.0 0.0
 
Date/Time
EST
Temp
°C
App
Temp
°C
Dew
Point
°C
Rel
Hum
%
Delta-T
°C
Wind Press
QNH
hPa
Press
MSL
hPa
Rain since
9am
mm
Dir  Spd
km/h
Gust
km/h
Spd
kts
Gust
kts
08/11:30pm 14.2 12.5 11.2 82 1.6 ESE 11 19 6 10 1027.4 1027.4 0.0
08/11:00pm 14.2 12.1 11.2 82 1.6 E 13 28 7 15 1027.3 1027.3 0.0
08/10:30pm 14.4 12.0 11.4 82 1.6 ESE 15 24 8 13 1027.4 1027.4 0.0
08/10:00pm 14.3 11.8 11.1 81 1.7 ESE 15 26 8 14 1027.3 1027.3 0.0
08/09:30pm 14.5 11.7 11.3 81 1.7 ESE 17 26 9 14 1027.0 1027.0 0.0
08/09:00pm 14.4 12.4 11.4 82 1.6 ESE 13 26 7 14 1026.9 1026.9 0.0
08/08:30pm 14.5 11.7 11.5 82 1.6 ESE 17 30 9 16 1026.6 1026.6 0.0
08/08:00pm 14.8 12.4 11.4 80 1.8 SE 15 26 8 14 1026.3 1026.3 0.0
08/07:30pm 15.0 13.7 11.2 78 2.0 ESE 9 17 5 9 1025.9 1025.9 0.0
08/07:00pm 15.4 13.3 11.2 76 2.2 ESE 13 22 7 12 1025.5 1025.5 0.0
08/06:30pm 15.9 13.9 11.5 75 2.4 ESE 13 26 7 14 1025.3 1025.3 0.0
08/06:00pm 16.5 14.5 11.4 72 2.7 SE 13 22 7 12 1025.1 1025.1 0.0
08/05:30pm 16.6 13.9 11.7 73 2.7 SE 17 30 9 16 1024.8 1024.8 0.0
08/05:00pm 17.1 14.7 11.4 69 3.1 SE 15 28 8 15 1024.6 1024.6 0.0
08/04:30pm 17.8 16.0 12.0 69 3.2 SSE 13 24 7 13 1024.4 1024.4 0.0
08/04:00pm 17.5 15.5 11.5 68 3.3 SSE 13 24 7 13 1024.5 1024.5 0.0
08/03:30pm 17.6 15.2 11.4 67 3.4 S 15 26 8 14 1024.4 1024.4 0.0
08/03:00pm 17.9 15.8 11.2 65 3.6 SSE 13 20 7 11 1024.4 1024.4 0.0
08/02:30pm 17.9 16.2 11.2 65 3.6 S 11 17 6 9 1024.1 1024.1 0.0
08/02:00pm 18.1 16.2 10.5 61 4.1 ESE 11 15 6 8 1024.2 1024.2 0.0
08/01:30pm 18.1 16.3 11.0 63 3.8 ESE 11 19 6 10 1024.3 1024.3 0.0
08/01:00pm 17.4 15.5 10.5 64 3.7 ESE 11 17 6 9 1024.6 1024.6 0.0
08/12:30pm 16.6 15.0 10.2 66 3.4 ESE 9 15 5 8 1025.1 1025.1 0.0
08/12:00pm 16.8 15.5 11.1 69 3.1 ESE 9 15 5 8 1025.3 1025.3 0.0
08/11:30am 16.3 14.6 11.2 72 2.7 ESE 11 19 6 10 1025.5 1025.5 0.0
08/11:00am 16.4 16.2 13.1 81 1.8 NE 6 7 3 4 1025.4 1025.4 0.0
08/10:30am 14.7 14.7 12.4 86 1.3 NE 4 7 2 4 1025.5 1025.5 0.0
08/10:00am 14.2 14.6 12.4 89 1.0 NE 2 6 1 3 1025.5 1025.5 0.0
08/09:30am 13.5 13.0 11.9 90 0.9 ENE 6 7 3 4 1025.4 1025.4 0.0
08/09:00am 13.6 13.5 12.0 90 0.9 E 4 7 2 4 1025.0 1025.0 1.0
08/08:30am 13.4 13.2 11.8 90 0.9 E 4 6 2 3 1024.7 1024.7 1.0
08/08:00am 13.2 13.3 11.6 90 0.8 E 2 4 1 2 1024.4 1024.4 1.0
08/07:30am 13.0 13.0 11.2 89 0.9 E 2 4 1 2 1023.9 1023.9 1.0
08/07:00am 12.5 12.7 10.7 89 0.9 CALM 0 0 0 0 1023.6 1023.6 1.0
08/06:30am 12.7 12.6 10.9 89 0.9 ESE 2 4 1 2 1023.3 1023.3 1.0
08/06:00am 12.8 12.4 11.0 89 0.9 ESE 4 7 2 4 1023.2 1023.2 0.8
08/05:30am 12.9 11.9 11.0 88 1.0 SE 7 13 4 7 1023.1 1023.1 0.8
08/05:00am 12.9 11.1 11.0 88 1.0 SE 11 15 6 8 1022.8 1022.8 0.8
08/04:30am 13.1 12.3 11.2 88 1.0 SSE 6 13 3 7 1022.6 1022.6 0.8
08/04:00am 13.0 12.0 11.1 88 1.0 SE 7 13 4 7 1022.4 1022.3 0.8
08/03:30am 13.2 12.5 11.3 88 1.0 SSE 6 9 3 5 1022.3 1022.2 0.8
08/03:00am 13.2 11.5 11.3 88 1.0 SSW 11 15 6 8 1022.5 1022.5 0.8
08/02:30am 12.7 11.9 10.9 89 0.9 S 6 9 3 5 1022.8 1022.8 0.8
08/02:00am 12.5 12.0 10.7 89 0.9 SW 4 6 2 3 1023.1 1023.1 0.8
08/01:30am 12.7 11.7 11.1 90 0.8 SSW 7 13 4 7 1023.2 1023.2 0.8
08/01:00am 12.0 10.8 10.4 90 0.8 SSW 7 11 4 6 1023.2 1023.2 0.8
08/12:30am 11.5 10.8 10.1 91 0.7 SSW 4 7 2 4 1023.2 1023.2 0.8
08/12:00am 11.4 11.4 9.8 90 0.8 CALM 0 2 0 1 1023.2 1023.2 0.8
 
Date/Time
EST
Temp
°C
App
Temp
°C
Dew
Point
°C
Rel
Hum
%
Delta-T
°C
Wind Press
QNH
hPa
Press
MSL
hPa
Rain since
9am
mm
Dir  Spd
km/h
Gust
km/h
Spd
kts
Gust
kts
07/11:30pm 11.4 10.6 9.8 90 0.8 SSW 4 4 2 2 1023.3 1023.3 0.8
07/11:00pm 11.6 11.3 10.0 90 0.8 SSW 2 6 1 3 1023.5 1023.5 0.8
07/10:30pm 11.4 11.0 9.8 90 0.8 SSW 2 4 1 2 1023.7 1023.7 0.8
07/10:00pm 11.7 10.6 10.1 90 0.8 SSW 6 7 3 4 1023.6 1023.6 0.8
07/09:30pm 11.8 11.1 10.0 89 0.9 SSW 4 6 2 3 1023.6 1023.6 0.8
07/09:00pm 11.8 11.1 10.0 89 0.9 S 4 9 2 5 1023.6 1023.6 0.8
07/08:30pm 11.8 11.1 10.0 89 0.9 W 4 6 2 3 1023.8 1023.8 0.8
07/08:00pm 11.9 10.8 10.0 88 1.0 W 6 9 3 5 1023.7 1023.7 0.8
07/07:30pm 11.9 10.8 10.0 88 1.0 WSW 6 7 3 4 1023.6 1023.6 0.4
07/07:00pm 11.6 10.8 9.5 87 1.1 W 4 6 2 3 1023.3 1023.3 0.2
07/06:30pm 11.8 10.4 9.7 87 1.1 WSW 7 11 4 6 1023.1 1023.1 0.2
07/06:00pm 12.4 11.1 10.0 85 1.2 WSW 7 11 4 6 1023.0 1023.0 0.2
07/05:30pm 13.0 12.3 10.2 83 1.4 SSW 4 7 2 4 1022.7 1022.7 0.2
07/05:00pm 12.7 12.0 10.1 84 1.3 S 4 4 2 2 1022.6 1022.6 0.2
07/04:30pm 12.3 10.6 9.7 84 1.3 S 9 19 5 10 1022.7 1022.7 0.2
07/04:00pm 13.3 11.9 9.5 78 1.9 S 7 11 4 6 1022.7 1022.7 0.0
07/03:30pm 14.3 12.0 8.9 70 2.7 SW 11 17 6 9 1022.7 1022.7 0.0
07/03:00pm 14.5 11.4 8.9 69 2.8 SW 15 20 8 11 1022.9 1022.9 0.0
07/02:30pm 14.1 11.2 9.5 74 2.4 SW 15 26 8 14 1023.0 1023.0 0.0
07/02:00pm 14.6 11.0 9.8 73 2.5 SSW 19 28 10 15 1023.1 1023.1 0.0
07/01:30pm 15.3 12.2 9.0 66 3.2 SSW 15 20 8 11 1023.3 1023.3 0.0
07/01:00pm 15.1 12.6 8.1 63 3.5 SSW 11 19 6 10 1023.6 1023.6 0.0
07/12:30pm 15.3 12.1 6.8 57 4.2 SSW 13 20 7 11 1024.1 1024.1 0.0
07/12:00pm 15.5 13.1 6.8 56 4.2 SW 9 13 5 7 1024.4 1024.4 0.0
07/11:30am 15.0 13.0 7.3 60 3.8 SW 7 13 4 7 1024.4 1024.4 0.0
07/11:00am 14.5 12.5 7.1 61 3.6 SSW 7 11 4 6 1024.4 1024.4 0.0
07/10:30am 14.4 12.9 8.4 67 3.0 SW 6 9 3 5 1024.6 1024.6 0.0
07/10:00am 14.2 13.0 9.6 74 2.4 SW 6 7 3 4 1024.6 1024.6 0.0
07/09:30am 13.3 13.5 10.5 83 1.5 CALM 0 2 0 1 1024.6 1024.6 0.0
07/09:00am 13.2 13.4 10.6 84 1.3 CALM 0 2 0 1 1024.4 1024.4 0.0
07/08:30am 12.7 12.0 10.1 84 1.3 NNE 4 6 2 3 1024.1 1024.1 0.0
07/08:00am 12.6 11.9 10.1 85 1.3 NNE 4 6 2 3 1023.9 1023.9 0.0
07/07:30am 12.7 12.4 10.2 85 1.3 N 2 4 1 2 1023.7 1023.7 0.0
07/07:00am 12.1 11.6 9.5 84 1.3 N 2 4 1 2 1023.4 1023.4 0.0
07/06:30am 11.6 11.0 8.8 83 1.4 N 2 6 1 3 1023.2 1023.2 0.0
07/06:00am 11.5 11.2 8.7 83 1.4 CALM 0 4 0 2 1023.1 1023.1 0.0
07/05:30am 11.7 11.1 8.9 83 1.4 WNW 2 4 1 2 1022.8 1022.8 0.0
07/05:00am 11.5 10.5 8.7 83 1.4 WNW 4 6 2 3 1022.8 1022.8 0.0
07/04:30am 11.8 11.6 9.0 83 1.4 CALM 0 0 0 0 1022.8 1022.8 0.0
07/04:00am 11.7 10.7 8.7 82 1.5 WNW 4 6 2 3 1022.7 1022.7 0.0
07/03:30am 11.9 11.3 8.9 82 1.5 W 2 4 1 2 1022.8 1022.8 0.0
07/03:00am 11.9 10.5 8.9 82 1.5 W 6 7 3 4 1022.9 1022.9 0.0
07/02:30am 11.3 9.9 8.7 84 1.3 WNW 6 7 3 4 1023.1 1023.1 0.0
07/02:00am 10.7 9.1 8.1 84 1.3 WNW 6 7 3 4 1023.3 1023.3 0.0
07/01:30am 10.4 9.1 7.5 82 1.4 SW 4 6 2 3 1023.5 1023.5 0.0
07/01:00am 11.5 9.9 8.2 80 1.6 SW 6 9 3 5 1023.5 1023.5 0.0
07/12:30am 12.0 10.1 9.0 82 1.5 SW 9 13 5 7 1023.5 1023.5 0.0
07/12:00am 10.8 9.9 7.7 81 1.5 WSW 2 6 1 3 1023.6 1023.6 0.0
 
Date/Time
EST
Temp
°C
App
Temp
°C
Dew
Point
°C
Rel
Hum
%
Delta-T
°C
Wind Press
QNH
hPa
Press
MSL
hPa
Rain since
9am
mm
Dir  Spd
km/h
Gust
km/h
Spd
kts
Gust
kts
06/11:30pm 11.1 9.8 7.6 79 1.7 W 4 6 2 3 1023.7 1023.7 0.0
06/11:00pm 11.1 9.3 7.0 76 1.9 W 6 7 3 4 1023.7 1023.7 0.0
06/10:30pm 12.2 10.3 7.5 73 2.3 WNW 7 7 4 4 1023.8 1023.8 0.0
06/10:00pm 12.3 10.1 7.8 74 2.2 W 9 13 5 7 1023.8 1023.8 0.0
06/09:30pm 12.3 10.4 7.6 73 2.3 W 7 13 4 7 1023.8 1023.8 0.0
06/09:00pm 13.1 10.9 8.0 71 2.5 WSW 9 13 5 7 1023.8 1023.8 0.0
06/08:30pm 13.1 10.6 8.0 71 2.5 SW 11 20 6 11 1023.8 1023.8 0.0
06/08:00pm 13.2 11.2 8.5 73 2.3 SW 9 20 5 11 1023.5 1023.5 0.0
06/07:30pm 12.7 11.3 7.4 70 2.6 WSW 4 6 2 3 1023.2 1023.2 0.0
06/07:00pm 13.0 11.7 7.5 69 2.7 WSW 4 6 2 3 1023.0 1023.0 0.0
06/06:30pm 13.3 11.0 7.3 67 2.9 WSW 9 13 5 7 1022.8 1022.8 0.0
06/06:00pm 13.3 11.1 8.0 70 2.6 WSW 9 15 5 8 1022.5 1022.5 0.0

Latest Capital City Observations: Canberra | Sydney | Melbourne | Brisbane | Adelaide | Perth | Hobart | Darwin

Other formats

Comma delimited format used in spreadsheet applications
http://www.bom.gov.au/fwo/IDV60901/IDV60901.94898.axf

JavaScript Object Notation format (JSON) in row-major order
http://www.bom.gov.au/fwo/IDV60901/IDV60901.94898.json

Data quality

Most of these data are generated automatically and are frequently updated. Quality checks on data are not normally performed. It is possible for incorrect values to appear. Refer to information at About Latest Weather Observations and please check the disclaimer before using these data.